sensor_id;sensor_type;location;lat;lon;timestamp;P1;durP1;ratioP1;P2;durP2;ratioP2
22240;SDS011;11289;52.524;13.694;2023-11-21T00:00:19;24.27;;;12.65;;
22240;SDS011;11289;52.524;13.694;2023-11-21T00:02:45;23.90;;;12.82;;
22240;SDS011;11289;52.524;13.694;2023-11-21T00:05:12;24.60;;;13.10;;
22240;SDS011;11289;52.524;13.694;2023-11-21T00:07:42;27.58;;;13.93;;
22240;SDS011;11289;52.524;13.694;2023-11-21T00:10:09;26.83;;;13.05;;
22240;SDS011;11289;52.524;13.694;2023-11-21T00:12:37;29.23;;;14.43;;
22240;SDS011;11289;52.524;13.694;2023-11-21T00:15:03;24.15;;;13.10;;
22240;SDS011;11289;52.524;13.694;2023-11-21T00:17:39;27.65;;;14.55;;
22240;SDS011;11289;52.524;13.694;2023-11-21T00:20:06;31.10;;;14.77;;
22240;SDS011;11289;52.524;13.694;2023-11-21T00:22:33;31.30;;;16.25;;
22240;SDS011;11289;52.524;13.694;2023-11-21T00:25:01;29.08;;;15.15;;
22240;SDS011;11289;52.524;13.694;2023-11-21T00:27:29;29.38;;;14.45;;
22240;SDS011;11289;52.524;13.694;2023-11-21T00:29:55;31.00;;;16.13;;
22240;SDS011;11289;52.524;13.694;2023-11-21T00:32:22;29.13;;;15.93;;
22240;SDS011;11289;52.524;13.694;2023-11-21T00:34:48;32.28;;;16.52;;
22240;SDS011;11289;52.524;13.694;2023-11-21T00:37:14;34.03;;;16.35;;
22240;SDS011;11289;52.524;13.694;2023-11-21T00:39:40;31.95;;;17.05;;
22240;SDS011;11289;52.524;13.694;2023-11-21T00:42:06;37.40;;;17.15;;
22240;SDS011;11289;52.524;13.694;2023-11-21T00:44:32;30.30;;;15.43;;
22240;SDS011;11289;52.524;13.694;2023-11-21T00:46:59;36.17;;;16.88;;
22240;SDS011;11289;52.524;13.694;2023-11-21T00:49:25;47.25;;;19.70;;
22240;SDS011;11289;52.524;13.694;2023-11-21T00:51:51;43.72;;;20.08;;
22240;SDS011;11289;52.524;13.694;2023-11-21T00:54:17;43.75;;;21.00;;
22240;SDS011;11289;52.524;13.694;2023-11-21T00:56:43;43.58;;;20.30;;
22240;SDS011;11289;52.524;13.694;2023-11-21T00:59:09;47.58;;;21.00;;
22240;SDS011;11289;52.524;13.694;2023-11-21T01:01:36;40.28;;;20.35;;
22240;SDS011;11289;52.524;13.694;2023-11-21T01:04:03;47.67;;;20.63;;
22240;SDS011;11289;52.524;13.694;2023-11-21T01:06:29;44.05;;;21.63;;
22240;SDS011;11289;52.524;13.694;2023-11-21T01:08:55;42.38;;;20.38;;
22240;SDS011;11289;52.524;13.694;2023-11-21T01:11:21;42.75;;;20.48;;
22240;SDS011;11289;52.524;13.694;2023-11-21T01:13:47;42.20;;;20.33;;
22240;SDS011;11289;52.524;13.694;2023-11-21T01:16:13;36.63;;;18.30;;
22240;SDS011;11289;52.524;13.694;2023-11-21T01:18:39;39.60;;;18.33;;
22240;SDS011;11289;52.524;13.694;2023-11-21T01:21:05;31.20;;;17.30;;
22240;SDS011;11289;52.524;13.694;2023-11-21T01:23:31;34.30;;;17.60;;
22240;SDS011;11289;52.524;13.694;2023-11-21T01:25:57;29.23;;;17.05;;
22240;SDS011;11289;52.524;13.694;2023-11-21T01:28:23;30.38;;;15.05;;
22240;SDS011;11289;52.524;13.694;2023-11-21T01:30:49;23.67;;;15.15;;
22240;SDS011;11289;52.524;13.694;2023-11-21T01:33:15;28.60;;;16.65;;
22240;SDS011;11289;52.524;13.694;2023-11-21T01:35:41;25.55;;;14.25;;
22240;SDS011;11289;52.524;13.694;2023-11-21T01:38:08;24.27;;;13.38;;
22240;SDS011;11289;52.524;13.694;2023-11-21T01:40:34;24.38;;;13.82;;
22240;SDS011;11289;52.524;13.694;2023-11-21T01:43:00;28.08;;;14.30;;
22240;SDS011;11289;52.524;13.694;2023-11-21T01:45:29;22.50;;;12.95;;
22240;SDS011;11289;52.524;13.694;2023-11-21T01:47:56;30.45;;;13.55;;
22240;SDS011;11289;52.524;13.694;2023-11-21T01:50:23;29.90;;;15.55;;
22240;SDS011;11289;52.524;13.694;2023-11-21T01:52:50;37.55;;;18.08;;
22240;SDS011;11289;52.524;13.694;2023-11-21T01:55:17;34.20;;;18.08;;
22240;SDS011;11289;52.524;13.694;2023-11-21T01:57:44;40.63;;;19.23;;
22240;SDS011;11289;52.524;13.694;2023-11-21T02:00:11;40.42;;;18.05;;
22240;SDS011;11289;52.524;13.694;2023-11-21T02:02:44;42.78;;;20.23;;
22240;SDS011;11289;52.524;13.694;2023-11-21T02:05:11;48.22;;;20.60;;
22240;SDS011;11289;52.524;13.694;2023-11-21T02:07:39;44.50;;;19.80;;
22240;SDS011;11289;52.524;13.694;2023-11-21T02:10:06;42.65;;;19.27;;
22240;SDS011;11289;52.524;13.694;2023-11-21T02:12:33;39.90;;;18.35;;
22240;SDS011;11289;52.524;13.694;2023-11-21T02:15:01;34.08;;;15.88;;
22240;SDS011;11289;52.524;13.694;2023-11-21T02:17:35;36.55;;;17.88;;
22240;SDS011;11289;52.524;13.694;2023-11-21T02:20:02;33.72;;;15.38;;
22240;SDS011;11289;52.524;13.694;2023-11-21T02:22:29;31.08;;;15.23;;
22240;SDS011;11289;52.524;13.694;2023-11-21T02:24:58;27.10;;;13.10;;
22240;SDS011;11289;52.524;13.694;2023-11-21T02:27:24;25.90;;;12.77;;
22240;SDS011;11289;52.524;13.694;2023-11-21T02:29:50;26.55;;;13.50;;
22240;SDS011;11289;52.524;13.694;2023-11-21T02:32:16;24.13;;;11.73;;
22240;SDS011;11289;52.524;13.694;2023-11-21T02:34:44;19.75;;;10.15;;
22240;SDS011;11289;52.524;13.694;2023-11-21T02:37:11;21.63;;;10.10;;
22240;SDS011;11289;52.524;13.694;2023-11-21T02:39:37;20.27;;;10.23;;
22240;SDS011;11289;52.524;13.694;2023-11-21T02:42:03;21.55;;;11.23;;
22240;SDS011;11289;52.524;13.694;2023-11-21T02:44:29;21.60;;;10.25;;
22240;SDS011;11289;52.524;13.694;2023-11-21T02:46:55;17.45;;;9.18;;
22240;SDS011;11289;52.524;13.694;2023-11-21T02:49:23;16.63;;;9.18;;
22240;SDS011;11289;52.524;13.694;2023-11-21T02:51:49;17.90;;;9.10;;
22240;SDS011;11289;52.524;13.694;2023-11-21T02:54:15;17.60;;;9.43;;
22240;SDS011;11289;52.524;13.694;2023-11-21T02:56:42;15.77;;;9.18;;
22240;SDS011;11289;52.524;13.694;2023-11-21T02:59:08;16.15;;;8.82;;
22240;SDS011;11289;52.524;13.694;2023-11-21T03:01:34;18.52;;;9.02;;
22240;SDS011;11289;52.524;13.694;2023-11-21T03:04:00;14.90;;;9.70;;
22240;SDS011;11289;52.524;13.694;2023-11-21T03:06:27;19.08;;;9.95;;
22240;SDS011;11289;52.524;13.694;2023-11-21T03:08:53;17.80;;;9.90;;
22240;SDS011;11289;52.524;13.694;2023-11-21T03:11:19;18.63;;;9.52;;
22240;SDS011;11289;52.524;13.694;2023-11-21T03:13:45;15.15;;;9.02;;
22240;SDS011;11289;52.524;13.694;2023-11-21T03:16:11;16.13;;;8.18;;
22240;SDS011;11289;52.524;13.694;2023-11-21T03:18:38;15.18;;;8.10;;
22240;SDS011;11289;52.524;13.694;2023-11-21T03:21:05;13.85;;;8.00;;
22240;SDS011;11289;52.524;13.694;2023-11-21T03:23:31;12.07;;;7.53;;
22240;SDS011;11289;52.524;13.694;2023-11-21T03:25:57;13.68;;;6.60;;
22240;SDS011;11289;52.524;13.694;2023-11-21T03:28:25;13.25;;;7.35;;
22240;SDS011;11289;52.524;13.694;2023-11-21T03:30:52;13.88;;;7.18;;
22240;SDS011;11289;52.524;13.694;2023-11-21T03:33:18;12.55;;;7.78;;
22240;SDS011;11289;52.524;13.694;2023-11-21T03:35:44;13.10;;;7.35;;
22240;SDS011;11289;52.524;13.694;2023-11-21T03:38:10;13.10;;;6.85;;
22240;SDS011;11289;52.524;13.694;2023-11-21T03:40:36;12.93;;;7.65;;
22240;SDS011;11289;52.524;13.694;2023-11-21T03:43:02;11.82;;;7.18;;
22240;SDS011;11289;52.524;13.694;2023-11-21T03:45:28;11.85;;;7.60;;
22240;SDS011;11289;52.524;13.694;2023-11-21T03:47:54;12.20;;;8.52;;
22240;SDS011;11289;52.524;13.694;2023-11-21T03:50:21;11.88;;;7.25;;
22240;SDS011;11289;52.524;13.694;2023-11-21T03:52:47;9.77;;;6.72;;
22240;SDS011;11289;52.524;13.694;2023-11-21T03:55:13;11.90;;;6.75;;
22240;SDS011;11289;52.524;13.694;2023-11-21T03:57:40;11.70;;;6.47;;
22240;SDS011;11289;52.524;13.694;2023-11-21T04:00:06;11.43;;;7.13;;
22240;SDS011;11289;52.524;13.694;2023-11-21T04:02:34;8.98;;;6.20;;
22240;SDS011;11289;52.524;13.694;2023-11-21T04:05:00;11.57;;;7.75;;
22240;SDS011;11289;52.524;13.694;2023-11-21T04:07:26;12.93;;;7.00;;
22240;SDS011;11289;52.524;13.694;2023-11-21T04:09:52;13.15;;;7.05;;
22240;SDS011;11289;52.524;13.694;2023-11-21T04:12:19;10.90;;;6.80;;
22240;SDS011;11289;52.524;13.694;2023-11-21T04:14:45;11.02;;;6.35;;
22240;SDS011;11289;52.524;13.694;2023-11-21T04:17:11;11.25;;;5.60;;
22240;SDS011;11289;52.524;13.694;2023-11-21T04:19:37;10.50;;;6.43;;
22240;SDS011;11289;52.524;13.694;2023-11-21T04:22:03;9.90;;;6.22;;
22240;SDS011;11289;52.524;13.694;2023-11-21T04:24:29;12.25;;;6.75;;
22240;SDS011;11289;52.524;13.694;2023-11-21T04:26:55;6.93;;;4.85;;
22240;SDS011;11289;52.524;13.694;2023-11-21T04:29:21;8.57;;;5.38;;
22240;SDS011;11289;52.524;13.694;2023-11-21T04:31:48;8.48;;;5.38;;
22240;SDS011;11289;52.524;13.694;2023-11-21T04:34:14;8.55;;;5.10;;
22240;SDS011;11289;52.524;13.694;2023-11-21T04:36:40;9.48;;;5.07;;
22240;SDS011;11289;52.524;13.694;2023-11-21T04:39:06;9.90;;;4.72;;
22240;SDS011;11289;52.524;13.694;2023-11-21T04:41:32;7.60;;;5.32;;
22240;SDS011;11289;52.524;13.694;2023-11-21T04:43:58;6.00;;;4.55;;
22240;SDS011;11289;52.524;13.694;2023-11-21T04:46:26;7.40;;;4.60;;
22240;SDS011;11289;52.524;13.694;2023-11-21T04:48:52;6.45;;;4.65;;
22240;SDS011;11289;52.524;13.694;2023-11-21T04:51:18;7.57;;;4.80;;
22240;SDS011;11289;52.524;13.694;2023-11-21T04:53:44;7.40;;;4.18;;
22240;SDS011;11289;52.524;13.694;2023-11-21T04:56:10;8.02;;;4.03;;
22240;SDS011;11289;52.524;13.694;2023-11-21T04:58:36;6.93;;;4.85;;
22240;SDS011;11289;52.524;13.694;2023-11-21T05:01:02;8.70;;;4.70;;
22240;SDS011;11289;52.524;13.694;2023-11-21T05:03:28;7.97;;;4.80;;
22240;SDS011;11289;52.524;13.694;2023-11-21T05:05:55;7.03;;;4.57;;
22240;SDS011;11289;52.524;13.694;2023-11-21T05:08:21;10.38;;;5.97;;
22240;SDS011;11289;52.524;13.694;2023-11-21T05:10:48;8.02;;;4.82;;
22240;SDS011;11289;52.524;13.694;2023-11-21T05:13:14;9.63;;;5.28;;
22240;SDS011;11289;52.524;13.694;2023-11-21T05:15:43;8.82;;;4.80;;
22240;SDS011;11289;52.524;13.694;2023-11-21T05:18:09;7.93;;;5.00;;
22240;SDS011;11289;52.524;13.694;2023-11-21T05:20:35;10.52;;;6.03;;
22240;SDS011;11289;52.524;13.694;2023-11-21T05:23:01;9.80;;;5.72;;
22240;SDS011;11289;52.524;13.694;2023-11-21T05:25:27;12.45;;;7.40;;
22240;SDS011;11289;52.524;13.694;2023-11-21T05:27:53;11.45;;;7.82;;
22240;SDS011;11289;52.524;13.694;2023-11-21T05:30:20;13.15;;;7.68;;
22240;SDS011;11289;52.524;13.694;2023-11-21T05:32:47;8.43;;;6.03;;
22240;SDS011;11289;52.524;13.694;2023-11-21T05:35:13;7.95;;;5.28;;
22240;SDS011;11289;52.524;13.694;2023-11-21T05:37:41;7.78;;;4.90;;
22240;SDS011;11289;52.524;13.694;2023-11-21T05:40:08;7.28;;;5.10;;
22240;SDS011;11289;52.524;13.694;2023-11-21T05:42:34;8.77;;;5.07;;
22240;SDS011;11289;52.524;13.694;2023-11-21T05:45:01;10.25;;;6.15;;
22240;SDS011;11289;52.524;13.694;2023-11-21T05:47:37;9.63;;;5.78;;
22240;SDS011;11289;52.524;13.694;2023-11-21T05:50:06;10.77;;;5.82;;
22240;SDS011;11289;52.524;13.694;2023-11-21T05:52:40;8.30;;;5.97;;
22240;SDS011;11289;52.524;13.694;2023-11-21T05:55:07;9.45;;;6.45;;
22240;SDS011;11289;52.524;13.694;2023-11-21T05:57:37;10.60;;;6.60;;
22240;SDS011;11289;52.524;13.694;2023-11-21T06:00:08;11.48;;;6.63;;
22240;SDS011;11289;52.524;13.694;2023-11-21T06:02:48;10.68;;;6.07;;
22240;SDS011;11289;52.524;13.694;2023-11-21T06:05:21;9.35;;;6.28;;
22240;SDS011;11289;52.524;13.694;2023-11-21T06:07:49;12.25;;;6.22;;
22240;SDS011;11289;52.524;13.694;2023-11-21T06:10:15;9.57;;;6.13;;
22240;SDS011;11289;52.524;13.694;2023-11-21T06:12:43;8.30;;;6.03;;
22240;SDS011;11289;52.524;13.694;2023-11-21T06:15:09;8.50;;;5.80;;
22240;SDS011;11289;52.524;13.694;2023-11-21T06:17:40;8.60;;;6.55;;
22240;SDS011;11289;52.524;13.694;2023-11-21T06:20:07;10.27;;;6.13;;
22240;SDS011;11289;52.524;13.694;2023-11-21T06:22:40;9.32;;;5.75;;
22240;SDS011;11289;52.524;13.694;2023-11-21T06:25:08;10.90;;;6.40;;
22240;SDS011;11289;52.524;13.694;2023-11-21T06:27:39;7.60;;;5.63;;
22240;SDS011;11289;52.524;13.694;2023-11-21T06:30:06;8.27;;;6.20;;
22240;SDS011;11289;52.524;13.694;2023-11-21T06:32:37;8.18;;;5.30;;
22240;SDS011;11289;52.524;13.694;2023-11-21T06:35:05;8.55;;;5.22;;
22240;SDS011;11289;52.524;13.694;2023-11-21T06:37:32;8.60;;;5.45;;
22240;SDS011;11289;52.524;13.694;2023-11-21T06:39:58;7.38;;;4.60;;
22240;SDS011;11289;52.524;13.694;2023-11-21T06:42:25;7.57;;;5.07;;
22240;SDS011;11289;52.524;13.694;2023-11-21T06:44:52;8.35;;;5.38;;
22240;SDS011;11289;52.524;13.694;2023-11-21T06:47:19;6.97;;;4.70;;
22240;SDS011;11289;52.524;13.694;2023-11-21T06:49:46;7.57;;;4.25;;
22240;SDS011;11289;52.524;13.694;2023-11-21T06:52:15;9.88;;;4.35;;
22240;SDS011;11289;52.524;13.694;2023-11-21T06:54:41;6.10;;;4.53;;
22240;SDS011;11289;52.524;13.694;2023-11-21T06:57:07;9.70;;;4.78;;
22240;SDS011;11289;52.524;13.694;2023-11-21T06:59:33;7.85;;;5.10;;
22240;SDS011;11289;52.524;13.694;2023-11-21T07:01:59;9.60;;;5.47;;
22240;SDS011;11289;52.524;13.694;2023-11-21T07:04:25;8.32;;;4.93;;
22240;SDS011;11289;52.524;13.694;2023-11-21T07:06:53;10.30;;;5.35;;
22240;SDS011;11289;52.524;13.694;2023-11-21T07:09:20;13.15;;;6.03;;
22240;SDS011;11289;52.524;13.694;2023-11-21T07:11:49;11.10;;;5.82;;
22240;SDS011;11289;52.524;13.694;2023-11-21T07:14:15;12.68;;;6.32;;
22240;SDS011;11289;52.524;13.694;2023-11-21T07:16:42;12.32;;;6.03;;
22240;SDS011;11289;52.524;13.694;2023-11-21T07:19:08;14.23;;;5.60;;
22240;SDS011;11289;52.524;13.694;2023-11-21T07:21:34;15.43;;;6.53;;
22240;SDS011;11289;52.524;13.694;2023-11-21T07:24:04;18.08;;;7.70;;
22240;SDS011;11289;52.524;13.694;2023-11-21T07:26:34;18.38;;;7.35;;
22240;SDS011;11289;52.524;13.694;2023-11-21T07:29:03;17.55;;;7.47;;
22240;SDS011;11289;52.524;13.694;2023-11-21T07:31:30;19.55;;;8.77;;
22240;SDS011;11289;52.524;13.694;2023-11-21T07:33:57;17.42;;;8.00;;
22240;SDS011;11289;52.524;13.694;2023-11-21T07:36:23;17.45;;;8.30;;
22240;SDS011;11289;52.524;13.694;2023-11-21T07:38:49;18.90;;;8.30;;
22240;SDS011;11289;52.524;13.694;2023-11-21T07:41:16;16.67;;;8.05;;
22240;SDS011;11289;52.524;13.694;2023-11-21T07:43:43;15.30;;;8.25;;
22240;SDS011;11289;52.524;13.694;2023-11-21T07:46:10;14.45;;;8.15;;
22240;SDS011;11289;52.524;13.694;2023-11-21T07:48:38;18.05;;;7.85;;
22240;SDS011;11289;52.524;13.694;2023-11-21T07:51:05;17.88;;;7.72;;
22240;SDS011;11289;52.524;13.694;2023-11-21T07:53:32;19.55;;;8.18;;
22240;SDS011;11289;52.524;13.694;2023-11-21T07:55:58;19.48;;;8.43;;
22240;SDS011;11289;52.524;13.694;2023-11-21T07:58:28;16.90;;;8.85;;
22240;SDS011;11289;52.524;13.694;2023-11-21T08:00:54;18.58;;;8.65;;
22240;SDS011;11289;52.524;13.694;2023-11-21T08:03:20;19.65;;;8.77;;
22240;SDS011;11289;52.524;13.694;2023-11-21T08:05:46;18.50;;;8.77;;
22240;SDS011;11289;52.524;13.694;2023-11-21T08:08:12;19.52;;;9.13;;
22240;SDS011;11289;52.524;13.694;2023-11-21T08:10:38;18.33;;;8.25;;
22240;SDS011;11289;52.524;13.694;2023-11-21T08:13:05;19.35;;;8.18;;
22240;SDS011;11289;52.524;13.694;2023-11-21T08:15:31;19.30;;;8.77;;
22240;SDS011;11289;52.524;13.694;2023-11-21T08:17:58;21.73;;;8.90;;
22240;SDS011;11289;52.524;13.694;2023-11-21T08:20:26;11.38;;;6.05;;
22240;SDS011;11289;52.524;13.694;2023-11-21T08:22:52;10.45;;;5.50;;
22240;SDS011;11289;52.524;13.694;2023-11-21T08:25:18;8.93;;;4.53;;
22240;SDS011;11289;52.524;13.694;2023-11-21T08:27:46;6.50;;;3.90;;
22240;SDS011;11289;52.524;13.694;2023-11-21T08:30:12;6.28;;;3.70;;
22240;SDS011;11289;52.524;13.694;2023-11-21T08:32:39;4.70;;;2.65;;
22240;SDS011;11289;52.524;13.694;2023-11-21T08:35:07;5.70;;;3.67;;
22240;SDS011;11289;52.524;13.694;2023-11-21T08:37:33;4.45;;;2.90;;
22240;SDS011;11289;52.524;13.694;2023-11-21T08:40:03;4.75;;;2.47;;
22240;SDS011;11289;52.524;13.694;2023-11-21T08:42:34;5.10;;;2.63;;
22240;SDS011;11289;52.524;13.694;2023-11-21T08:45:00;6.32;;;3.13;;
22240;SDS011;11289;52.524;13.694;2023-11-21T08:47:27;4.85;;;3.10;;
22240;SDS011;11289;52.524;13.694;2023-11-21T08:49:53;4.32;;;2.85;;
22240;SDS011;11289;52.524;13.694;2023-11-21T08:52:19;3.90;;;2.65;;
22240;SDS011;11289;52.524;13.694;2023-11-21T08:54:49;4.68;;;2.78;;
22240;SDS011;11289;52.524;13.694;2023-11-21T08:57:24;4.75;;;2.85;;
22240;SDS011;11289;52.524;13.694;2023-11-21T08:59:51;4.60;;;2.92;;
22240;SDS011;11289;52.524;13.694;2023-11-21T09:02:21;6.45;;;2.20;;
22240;SDS011;11289;52.524;13.694;2023-11-21T09:04:49;3.83;;;2.78;;
22240;SDS011;11289;52.524;13.694;2023-11-21T09:07:16;3.03;;;2.40;;
22240;SDS011;11289;52.524;13.694;2023-11-21T09:09:42;4.15;;;3.13;;
22240;SDS011;11289;52.524;13.694;2023-11-21T09:12:08;3.67;;;2.47;;
22240;SDS011;11289;52.524;13.694;2023-11-21T09:14:36;4.60;;;2.95;;
22240;SDS011;11289;52.524;13.694;2023-11-21T09:17:02;4.13;;;3.05;;
22240;SDS011;11289;52.524;13.694;2023-11-21T09:19:28;4.03;;;2.78;;
22240;SDS011;11289;52.524;13.694;2023-11-21T09:21:55;4.25;;;3.20;;
22240;SDS011;11289;52.524;13.694;2023-11-21T09:24:22;4.68;;;3.10;;
22240;SDS011;11289;52.524;13.694;2023-11-21T09:26:48;4.28;;;2.25;;
22240;SDS011;11289;52.524;13.694;2023-11-21T09:29:15;4.53;;;2.28;;
22240;SDS011;11289;52.524;13.694;2023-11-21T09:31:41;4.15;;;2.67;;
22240;SDS011;11289;52.524;13.694;2023-11-21T09:34:09;4.05;;;2.88;;
22240;SDS011;11289;52.524;13.694;2023-11-21T09:36:37;3.13;;;2.22;;
22240;SDS011;11289;52.524;13.694;2023-11-21T09:39:04;3.33;;;2.38;;
22240;SDS011;11289;52.524;13.694;2023-11-21T09:41:40;3.28;;;1.90;;
22240;SDS011;11289;52.524;13.694;2023-11-21T09:44:17;3.17;;;1.80;;
22240;SDS011;11289;52.524;13.694;2023-11-21T09:46:44;2.50;;;2.05;;
22240;SDS011;11289;52.524;13.694;2023-11-21T09:49:14;2.80;;;1.90;;
22240;SDS011;11289;52.524;13.694;2023-11-21T09:51:43;2.38;;;1.48;;
22240;SDS011;11289;52.524;13.694;2023-11-21T09:54:10;3.05;;;1.42;;
22240;SDS011;11289;52.524;13.694;2023-11-21T09:56:37;1.58;;;1.40;;
22240;SDS011;11289;52.524;13.694;2023-11-21T09:59:04;3.33;;;1.40;;
22240;SDS011;11289;52.524;13.694;2023-11-21T10:01:35;2.70;;;1.33;;
22240;SDS011;11289;52.524;13.694;2023-11-21T10:04:02;1.90;;;1.38;;
22240;SDS011;11289;52.524;13.694;2023-11-21T10:06:29;2.00;;;1.33;;
22240;SDS011;11289;52.524;13.694;2023-11-21T10:08:57;1.63;;;1.10;;
22240;SDS011;11289;52.524;13.694;2023-11-21T10:11:24;2.28;;;1.23;;
22240;SDS011;11289;52.524;13.694;2023-11-21T10:13:52;3.88;;;1.55;;
22240;SDS011;11289;52.524;13.694;2023-11-21T10:16:19;2.00;;;1.50;;
22240;SDS011;11289;52.524;13.694;2023-11-21T10:18:49;2.70;;;1.27;;
22240;SDS011;11289;52.524;13.694;2023-11-21T10:21:21;3.55;;;1.50;;
22240;SDS011;11289;52.524;13.694;2023-11-21T10:23:47;1.80;;;1.38;;
22240;SDS011;11289;52.524;13.694;2023-11-21T10:26:13;3.42;;;1.35;;
22240;SDS011;11289;52.524;13.694;2023-11-21T10:28:54;2.63;;;1.58;;
22240;SDS011;11289;52.524;13.694;2023-11-21T10:31:27;2.35;;;1.60;;
22240;SDS011;11289;52.524;13.694;2023-11-21T10:33:53;2.95;;;1.60;;
22240;SDS011;11289;52.524;13.694;2023-11-21T10:36:27;2.47;;;1.65;;
22240;SDS011;11289;52.524;13.694;2023-11-21T10:38:54;2.50;;;1.85;;
22240;SDS011;11289;52.524;13.694;2023-11-21T10:41:20;2.08;;;1.85;;
22240;SDS011;11289;52.524;13.694;2023-11-21T10:43:46;3.60;;;2.10;;
22240;SDS011;11289;52.524;13.694;2023-11-21T10:46:13;3.17;;;2.10;;
22240;SDS011;11289;52.524;13.694;2023-11-21T10:48:43;4.20;;;2.05;;
22240;SDS011;11289;52.524;13.694;2023-11-21T10:51:09;3.20;;;1.38;;
22240;SDS011;11289;52.524;13.694;2023-11-21T10:53:39;5.30;;;2.65;;
22240;SDS011;11289;52.524;13.694;2023-11-21T10:56:08;3.28;;;1.50;;
22240;SDS011;11289;52.524;13.694;2023-11-21T10:58:37;4.20;;;1.95;;
22240;SDS011;11289;52.524;13.694;2023-11-21T11:01:06;2.58;;;1.60;;
22240;SDS011;11289;52.524;13.694;2023-11-21T11:03:32;2.92;;;1.95;;
22240;SDS011;11289;52.524;13.694;2023-11-21T11:06:02;3.83;;;1.90;;
22240;SDS011;11289;52.524;13.694;2023-11-21T11:08:30;3.35;;;1.77;;
22240;SDS011;11289;52.524;13.694;2023-11-21T11:10:57;3.60;;;1.90;;
22240;SDS011;11289;52.524;13.694;2023-11-21T11:13:24;5.03;;;1.80;;
22240;SDS011;11289;52.524;13.694;2023-11-21T11:15:51;3.00;;;1.98;;
22240;SDS011;11289;52.524;13.694;2023-11-21T11:18:25;2.47;;;1.58;;
22240;SDS011;11289;52.524;13.694;2023-11-21T11:20:51;2.53;;;1.77;;
22240;SDS011;11289;52.524;13.694;2023-11-21T11:35:07;2.60;;;1.70;;
22240;SDS011;11289;52.524;13.694;2023-11-21T11:37:43;2.33;;;1.85;;
22240;SDS011;11289;52.524;13.694;2023-11-21T11:40:12;3.08;;;1.80;;
22240;SDS011;11289;52.524;13.694;2023-11-21T11:42:38;2.83;;;1.80;;
22240;SDS011;11289;52.524;13.694;2023-11-21T11:45:25;2.45;;;1.90;;
22240;SDS011;11289;52.524;13.694;2023-11-21T11:47:57;4.75;;;1.95;;
22240;SDS011;11289;52.524;13.694;2023-11-21T11:50:23;3.80;;;1.85;;
22240;SDS011;11289;52.524;13.694;2023-11-21T11:52:51;2.40;;;1.75;;
22240;SDS011;11289;52.524;13.694;2023-11-21T11:55:20;2.35;;;1.70;;
22240;SDS011;11289;52.524;13.694;2023-11-21T11:57:48;4.05;;;1.88;;
22240;SDS011;11289;52.524;13.694;2023-11-21T12:00:18;3.58;;;2.05;;
22240;SDS011;11289;52.524;13.694;2023-11-21T12:02:47;2.30;;;1.50;;
22240;SDS011;11289;52.524;13.694;2023-11-21T12:05:18;2.30;;;1.67;;
22240;SDS011;11289;52.524;13.694;2023-11-21T12:07:46;3.22;;;2.00;;
22240;SDS011;11289;52.524;13.694;2023-11-21T12:10:16;2.60;;;1.40;;
22240;SDS011;11289;52.524;13.694;2023-11-21T12:12:54;2.70;;;1.90;;
22240;SDS011;11289;52.524;13.694;2023-11-21T12:15:22;3.72;;;2.28;;
22240;SDS011;11289;52.524;13.694;2023-11-21T12:17:48;5.10;;;2.70;;
22240;SDS011;11289;52.524;13.694;2023-11-21T12:20:16;3.80;;;2.90;;
22240;SDS011;11289;52.524;13.694;2023-11-21T12:22:54;6.13;;;2.95;;
22240;SDS011;11289;52.524;13.694;2023-11-21T12:25:22;4.30;;;2.85;;
22240;SDS011;11289;52.524;13.694;2023-11-21T12:27:50;3.67;;;2.88;;
22240;SDS011;11289;52.524;13.694;2023-11-21T12:30:18;4.18;;;2.97;;
22240;SDS011;11289;52.524;13.694;2023-11-21T12:32:48;3.42;;;2.70;;
22240;SDS011;11289;52.524;13.694;2023-11-21T12:35:17;4.47;;;3.03;;
22240;SDS011;11289;52.524;13.694;2023-11-21T12:37:45;3.88;;;2.95;;
22240;SDS011;11289;52.524;13.694;2023-11-21T12:40:12;4.00;;;3.50;;
22240;SDS011;11289;52.524;13.694;2023-11-21T12:42:41;5.53;;;3.67;;
22240;SDS011;11289;52.524;13.694;2023-11-21T12:45:18;4.68;;;4.10;;
22240;SDS011;11289;52.524;13.694;2023-11-21T12:47:47;4.55;;;3.60;;
22240;SDS011;11289;52.524;13.694;2023-11-21T12:50:24;6.43;;;4.18;;
22240;SDS011;11289;52.524;13.694;2023-11-21T12:52:55;4.65;;;4.15;;
22240;SDS011;11289;52.524;13.694;2023-11-21T12:55:24;6.32;;;4.20;;
22240;SDS011;11289;52.524;13.694;2023-11-21T12:57:54;6.25;;;4.00;;
22240;SDS011;11289;52.524;13.694;2023-11-21T13:00:28;6.32;;;4.40;;
22240;SDS011;11289;52.524;13.694;2023-11-21T13:02:59;4.07;;;3.28;;
22240;SDS011;11289;52.524;13.694;2023-11-21T13:05:26;4.95;;;3.80;;
22240;SDS011;11289;52.524;13.694;2023-11-21T13:08:00;4.75;;;3.70;;
22240;SDS011;11289;52.524;13.694;2023-11-21T13:10:31;5.45;;;3.50;;
22240;SDS011;11289;52.524;13.694;2023-11-21T13:12:58;4.40;;;3.17;;
22240;SDS011;11289;52.524;13.694;2023-11-21T13:15:26;4.57;;;3.00;;
22240;SDS011;11289;52.524;13.694;2023-11-21T13:17:53;4.15;;;2.65;;
22240;SDS011;11289;52.524;13.694;2023-11-21T13:20:19;3.78;;;2.22;;
22240;SDS011;11289;52.524;13.694;2023-11-21T13:22:47;6.43;;;3.42;;
22240;SDS011;11289;52.524;13.694;2023-11-21T13:25:17;4.80;;;3.15;;
22240;SDS011;11289;52.524;13.694;2023-11-21T13:27:44;4.55;;;2.90;;
22240;SDS011;11289;52.524;13.694;2023-11-21T13:30:12;5.20;;;3.22;;
22240;SDS011;11289;52.524;13.694;2023-11-21T13:32:41;5.43;;;4.20;;
22240;SDS011;11289;52.524;13.694;2023-11-21T13:35:12;9.25;;;4.20;;
22240;SDS011;11289;52.524;13.694;2023-11-21T13:37:51;7.80;;;4.50;;
22240;SDS011;11289;52.524;13.694;2023-11-21T13:40:21;5.60;;;4.32;;
22240;SDS011;11289;52.524;13.694;2023-11-21T13:42:55;6.70;;;4.97;;
22240;SDS011;11289;52.524;13.694;2023-11-21T13:45:25;6.50;;;4.60;;
22240;SDS011;11289;52.524;13.694;2023-11-21T13:47:53;6.07;;;4.25;;
22240;SDS011;11289;52.524;13.694;2023-11-21T13:50:25;8.02;;;5.10;;
22240;SDS011;11289;52.524;13.694;2023-11-21T13:53:02;8.18;;;5.28;;
22240;SDS011;11289;52.524;13.694;2023-11-21T13:55:44;6.22;;;4.72;;
22240;SDS011;11289;52.524;13.694;2023-11-21T13:58:11;8.13;;;4.93;;
22240;SDS011;11289;52.524;13.694;2023-11-21T14:00:43;7.10;;;5.07;;
22240;SDS011;11289;52.524;13.694;2023-11-21T14:03:11;8.70;;;6.25;;
22240;SDS011;11289;52.524;13.694;2023-11-21T14:05:47;9.38;;;6.47;;
22240;SDS011;11289;52.524;13.694;2023-11-21T14:08:18;10.15;;;7.30;;
22240;SDS011;11289;52.524;13.694;2023-11-21T14:10:46;10.63;;;7.68;;
22240;SDS011;11289;52.524;13.694;2023-11-21T14:13:17;11.25;;;7.78;;
22240;SDS011;11289;52.524;13.694;2023-11-21T14:15:43;11.63;;;8.35;;
22240;SDS011;11289;52.524;13.694;2023-11-21T14:18:11;11.68;;;9.20;;
22240;SDS011;11289;52.524;13.694;2023-11-21T14:20:42;14.93;;;9.95;;
22240;SDS011;11289;52.524;13.694;2023-11-21T14:23:10;15.27;;;10.10;;
22240;SDS011;11289;52.524;13.694;2023-11-21T14:25:37;16.65;;;11.02;;
22240;SDS011;11289;52.524;13.694;2023-11-21T14:28:05;15.95;;;11.00;;
22240;SDS011;11289;52.524;13.694;2023-11-21T14:30:34;17.85;;;11.77;;
22240;SDS011;11289;52.524;13.694;2023-11-21T14:33:01;17.75;;;11.93;;
22240;SDS011;11289;52.524;13.694;2023-11-21T14:35:28;21.25;;;12.55;;
22240;SDS011;11289;52.524;13.694;2023-11-21T14:37:58;19.20;;;13.23;;
22240;SDS011;11289;52.524;13.694;2023-11-21T14:40:25;17.55;;;12.73;;